Time;durP1;ratioP1;P1;durP2;ratioP2;P2;SDS_P1;SDS_P2;PMS_P1;PMS_P2;Temp;Humidity;BMP_temperature;BMP_pressure;BME280_temperature;BME280_humidity;BME280_pressure;Samples;Min_cycle;Max_cycle;Signal;HPM_P1;HPM_P2
2023/12/09 00:01:22;;;;;;;280.83;46.42;;;1.20;99.90;;;;;;4989106;28;20030;-61
2023/12/09 00:03:48;;;;;;;375.85;50.25;;;1.20;99.90;;;;;;4990003;28;20394;-61
2023/12/09 00:06:13;;;;;;;306.83;47.00;;;1.20;99.90;;;;;;4988110;28;20161;-61
2023/12/09 00:08:39;;;;;;;276.48;48.80;;;1.20;99.90;;;;;;4988936;28;20065;-61
2023/12/09 00:11:05;;;;;;;219.35;41.42;;;1.20;99.90;;;;;;4988791;28;20042;-62
2023/12/09 00:13:33;;;;;;;228.38;44.17;;;1.20;99.90;;;;;;4989546;28;20034;-61
2023/12/09 00:15:59;;;;;;;302.20;46.25;;;1.20;99.90;;;;;;4988936;28;20038;-62
2023/12/09 00:18:25;;;;;;;313.13;46.40;;;1.20;99.90;;;;;;4989759;28;20014;-61
2023/12/09 00:20:51;;;;;;;269.17;44.80;;;1.20;99.90;;;;;;4986887;28;20030;-62
2023/12/09 00:23:16;;;;;;;220.50;45.47;;;1.20;99.90;;;;;;4988658;28;20022;-61
2023/12/09 00:25:42;;;;;;;252.52;43.70;;;1.20;99.90;;;;;;4987686;28;20030;-61
2023/12/09 00:28:08;;;;;;;378.90;48.63;;;1.20;99.90;;;;;;4988415;28;20033;-61
2023/12/09 00:30:34;;;;;;;226.35;40.85;;;1.30;99.90;;;;;;4988945;28;20026;-61
2023/12/09 00:33:00;;;;;;;261.10;45.10;;;1.30;99.90;;;;;;4989401;28;20037;-61
2023/12/09 00:35:25;;;;;;;215.10;42.45;;;1.30;99.90;;;;;;4986969;28;20503;-61
2023/12/09 00:37:51;;;;;;;409.27;48.17;;;1.30;99.90;;;;;;4988285;28;20059;-61
2023/12/09 00:40:18;;;;;;;372.10;52.47;;;1.30;99.90;;;;;;4987169;28;20043;-61
2023/12/09 00:42:44;;;;;;;268.45;43.42;;;1.30;99.90;;;;;;4988241;28;20030;-61
2023/12/09 00:45:10;;;;;;;305.92;47.38;;;1.30;99.90;;;;;;4986923;28;20034;-61
2023/12/09 00:47:36;;;;;;;330.25;47.58;;;1.30;99.90;;;;;;4987667;28;20156;-62
2023/12/09 00:50:02;;;;;;;420.30;49.95;;;1.30;99.90;;;;;;4987169;28;20117;-61
2023/12/09 00:52:27;;;;;;;436.33;50.60;;;1.30;99.90;;;;;;4986721;28;20114;-61
2023/12/09 00:54:53;;;;;;;329.23;46.42;;;1.20;99.90;;;;;;4985090;28;20054;-60
2023/12/09 00:57:20;;;;;;;362.48;48.65;;;1.30;99.90;;;;;;4990048;28;20049;-61
2023/12/09 00:59:47;;;;;;;346.70;42.17;;;1.20;99.90;;;;;;4987951;28;20034;-61
2023/12/09 01:02:12;;;;;;;458.70;52.35;;;1.20;99.90;;;;;;4988244;28;20506;-62
2023/12/09 01:04:38;;;;;;;254.93;43.13;;;1.20;99.90;;;;;;4987262;28;20093;-61
2023/12/09 01:07:04;;;;;;;416.08;49.42;;;1.20;99.90;;;;;;4985885;28;20022;-61
2023/12/09 01:09:29;;;;;;;312.30;44.67;;;1.20;99.90;;;;;;4987827;28;20029;-61
2023/12/09 01:11:55;;;;;;;431.45;49.75;;;1.30;99.90;;;;;;4988428;28;20070;-61
2023/12/09 01:14:21;;;;;;;387.00;47.13;;;1.20;99.90;;;;;;4986087;28;20121;-62
2023/12/09 01:16:46;;;;;;;389.95;49.97;;;1.20;99.90;;;;;;4986788;28;20469;-62
2023/12/09 01:19:12;;;;;;;353.27;49.25;;;1.20;99.90;;;;;;4987554;28;20046;-61
2023/12/09 01:21:37;;;;;;;287.70;41.95;;;1.30;99.90;;;;;;4986568;28;20030;-62
2023/12/09 01:24:04;;;;;;;381.80;47.92;;;1.30;99.90;;;;;;4986649;28;20037;-61
2023/12/09 01:26:30;;;;;;;350.90;50.60;;;1.30;99.90;;;;;;4989149;28;20038;-60
2023/12/09 01:28:57;;;;;;;357.80;47.25;;;1.30;99.90;;;;;;4987595;28;20793;-62
2023/12/09 01:31:22;;;;;;;426.42;51.25;;;1.30;99.90;;;;;;4986424;28;20968;-62
2023/12/09 01:33:48;;;;;;;361.13;49.08;;;1.30;99.90;;;;;;4986614;28;20026;-61
2023/12/09 01:36:13;;;;;;;283.85;42.92;;;1.30;99.90;;;;;;4987570;28;20034;-61
2023/12/09 01:38:39;;;;;;;323.05;45.95;;;1.30;99.90;;;;;;4986632;28;21006;-62
2023/12/09 01:41:05;;;;;;;452.75;53.63;;;1.30;99.90;;;;;;4987034;28;20042;-62
2023/12/09 01:43:31;;;;;;;385.55;48.55;;;1.30;99.90;;;;;;4986329;28;20041;-61
2023/12/09 01:46:03;;;;;;;416.63;47.45;;;1.30;99.90;;;;;;4969273;28;20698;-61
2023/12/09 01:48:29;;;;;;;330.77;45.45;;;1.30;99.90;;;;;;4987095;28;20952;-61
2023/12/09 01:50:54;;;;;;;513.90;54.45;;;1.30;99.90;;;;;;4986860;28;20026;-61
2023/12/09 01:53:20;;;;;;;389.92;49.95;;;1.30;99.90;;;;;;4986493;28;20050;-61
2023/12/09 01:55:47;;;;;;;515.45;56.72;;;1.30;99.90;;;;;;4986470;28;20034;-61
2023/12/09 01:58:12;;;;;;;427.02;52.10;;;1.30;99.90;;;;;;4985847;28;20085;-61
2023/12/09 02:00:42;;;;;;;393.70;49.97;;;1.30;99.90;;;;;;4985754;28;20473;-61
2023/12/09 02:03:08;;;;;;;431.93;50.03;;;1.30;99.90;;;;;;4986662;28;20041;-61
2023/12/09 02:05:34;;;;;;;472.85;55.25;;;1.30;99.90;;;;;;4986855;28;20030;-61
2023/12/09 02:07:59;;;;;;;432.27;51.92;;;1.30;99.90;;;;;;4987230;28;20031;-60
2023/12/09 02:10:26;;;;;;;372.63;49.67;;;1.30;99.90;;;;;;4987295;28;20412;-61
2023/12/09 02:12:57;;;;;;;379.90;51.03;;;1.30;99.90;;;;;;4985413;28;20023;-61
2023/12/09 02:15:37;;;;;;;448.02;53.20;;;1.30;99.90;;;;;;4986408;28;20021;-61
2023/12/09 02:18:05;;;;;;;412.60;50.72;;;1.30;99.90;;;;;;4986933;28;20103;-62
2023/12/09 02:20:31;;;;;;;372.38;50.22;;;1.30;99.90;;;;;;4986851;28;20628;-62
2023/12/09 02:23:07;;;;;;;367.23;46.97;;;1.30;99.90;;;;;;4987174;28;20066;-61
2023/12/09 02:25:34;;;;;;;415.15;51.38;;;1.30;99.90;;;;;;4986675;28;20030;-62
2023/12/09 02:28:05;;;;;;;329.30;47.92;;;1.30;99.90;;;;;;4986793;28;20036;-62
2023/12/09 02:30:51;;;;;;;349.58;47.22;;;1.40;99.90;;;;;;4986099;28;20036;-61
2023/12/09 02:33:18;;;;;;;215.55;40.90;;;1.40;99.90;;;;;;4987106;28;20038;-61
2023/12/09 02:35:46;;;;;;;380.58;47.40;;;1.40;99.90;;;;;;4985930;28;20031;-61
2023/12/09 02:38:13;;;;;;;349.85;47.17;;;1.40;99.90;;;;;;4986733;28;20541;-62
2023/12/09 02:40:41;;;;;;;305.13;47.20;;;1.40;99.90;;;;;;4985309;28;20108;-61
2023/12/09 02:43:08;;;;;;;287.58;42.85;;;1.40;99.90;;;;;;4986815;28;20038;-61
2023/12/09 02:45:33;;;;;;;311.20;44.83;;;1.40;99.90;;;;;;4985599;28;20026;-62
2023/12/09 02:47:59;;;;;;;401.48;47.83;;;1.40;99.90;;;;;;4986792;28;20402;-61
2023/12/09 02:50:25;;;;;;;350.10;44.15;;;1.40;99.90;;;;;;4986711;28;20662;-61
2023/12/09 02:52:50;;;;;;;400.38;49.67;;;1.40;99.90;;;;;;4986878;28;20034;-61
2023/12/09 02:55:16;;;;;;;390.67;49.65;;;1.40;99.90;;;;;;4986380;28;20514;-62
2023/12/09 02:57:42;;;;;;;389.30;48.97;;;1.40;99.90;;;;;;4986704;28;20026;-60
2023/12/09 03:00:08;;;;;;;340.83;48.30;;;1.40;99.90;;;;;;4986774;28;20057;-62
2023/12/09 03:02:34;;;;;;;349.75;48.50;;;1.40;99.90;;;;;;4985709;28;20041;-62
2023/12/09 03:04:59;;;;;;;413.77;51.17;;;1.40;99.90;;;;;;4986285;28;20023;-61
2023/12/09 03:07:25;;;;;;;283.95;41.35;;;1.40;99.90;;;;;;4979839;28;20034;-63
2023/12/09 03:09:51;;;;;;;300.83;44.25;;;1.40;99.90;;;;;;4986350;28;20037;-61
2023/12/09 03:12:17;;;;;;;314.75;45.28;;;1.40;99.90;;;;;;4987278;28;20029;-61
2023/12/09 03:14:42;;;;;;;365.48;46.40;;;1.40;99.90;;;;;;4986477;28;20434;-61
2023/12/09 03:17:10;;;;;;;364.52;46.33;;;1.40;99.90;;;;;;4985927;28;20050;-62
2023/12/09 03:19:35;;;;;;;389.55;45.65;;;1.40;99.90;;;;;;4986318;28;20061;-61
2023/12/09 03:22:01;;;;;;;219.30;38.53;;;1.40;99.90;;;;;;4986507;28;20057;-61
2023/12/09 03:24:27;;;;;;;414.00;47.00;;;1.40;99.90;;;;;;4985922;28;20058;-62
2023/12/09 03:26:53;;;;;;;371.52;45.40;;;1.40;99.90;;;;;;4986429;28;20077;-61
2023/12/09 03:29:20;;;;;;;386.95;46.45;;;1.40;99.90;;;;;;4986539;28;20026;-62
2023/12/09 03:31:46;;;;;;;352.75;41.80;;;1.40;99.90;;;;;;4986040;28;20038;-62
2023/12/09 03:34:15;;;;;;;446.23;49.17;;;1.40;99.90;;;;;;4986355;28;20479;-62
2023/12/09 03:36:41;;;;;;;488.50;51.97;;;1.40;99.90;;;;;;4986631;28;20023;-62
2023/12/09 03:39:07;;;;;;;431.10;50.50;;;1.40;99.90;;;;;;4986427;28;20080;-63
2023/12/09 03:41:36;;;;;;;387.48;48.85;;;1.40;99.90;;;;;;4987632;28;20030;-61
2023/12/09 03:44:02;;;;;;;446.95;51.13;;;1.40;99.90;;;;;;4988312;28;20514;-62
2023/12/09 03:46:28;;;;;;;497.15;52.13;;;1.40;99.90;;;;;;4987331;28;20026;-62
2023/12/09 03:48:54;;;;;;;413.23;46.28;;;1.40;99.90;;;;;;4989923;28;20032;-61
2023/12/09 03:51:19;;;;;;;242.30;39.38;;;1.40;99.90;;;;;;4990096;28;20073;-61
2023/12/09 03:53:45;;;;;;;276.80;40.25;;;1.40;99.90;;;;;;4990799;28;20460;-61
2023/12/09 03:56:14;;;;;;;389.55;46.28;;;1.40;99.90;;;;;;4986591;28;20129;-61
2023/12/09 03:58:40;;;;;;;348.85;45.88;;;1.40;99.90;;;;;;4989926;28;20045;-62
2023/12/09 04:01:05;;;;;;;382.17;45.42;;;1.40;99.90;;;;;;4989839;28;20030;-63
2023/12/09 04:03:31;;;;;;;333.80;43.75;;;1.40;99.90;;;;;;4989706;28;20061;-62
2023/12/09 04:05:57;;;;;;;393.00;47.47;;;1.40;99.90;;;;;;4989383;28;20030;-62
2023/12/09 04:08:22;;;;;;;503.52;54.67;;;1.40;99.90;;;;;;4989404;28;20031;-62
2023/12/09 04:10:48;;;;;;;514.28;56.35;;;1.40;99.90;;;;;;4988220;28;20109;-62
2023/12/09 04:13:14;;;;;;;469.60;52.42;;;1.40;99.90;;;;;;4989419;28;20042;-60
2023/12/09 04:15:39;;;;;;;481.40;50.90;;;1.40;99.90;;;;;;4989225;28;20019;-62
2023/12/09 04:18:06;;;;;;;468.67;51.50;;;1.40;99.90;;;;;;4989551;28;20030;-62
2023/12/09 04:20:32;;;;;;;384.25;47.85;;;1.40;99.90;;;;;;4988312;28;20589;-61
2023/12/09 04:22:58;;;;;;;237.90;39.13;;;1.40;99.90;;;;;;4989982;28;20053;-61
2023/12/09 04:25:24;;;;;;;363.67;43.17;;;1.40;99.90;;;;;;4989844;28;20037;-62
2023/12/09 04:27:50;;;;;;;253.68;38.60;;;1.40;99.90;;;;;;4990206;28;20097;-62
2023/12/09 04:30:16;;;;;;;300.23;39.47;;;1.40;99.90;;;;;;4987993;28;20042;-62
2023/12/09 04:32:42;;;;;;;295.80;42.00;;;1.40;99.90;;;;;;4989206;28;20525;-62
2023/12/09 04:35:08;;;;;;;299.52;40.20;;;1.40;99.90;;;;;;4989159;28;20026;-62
2023/12/09 04:37:34;;;;;;;338.88;44.05;;;1.40;99.90;;;;;;4988869;28;20037;-62
2023/12/09 04:40:00;;;;;;;379.08;44.05;;;1.40;99.90;;;;;;4988911;28;20030;-61
2023/12/09 04:42:27;;;;;;;352.38;43.92;;;1.50;99.90;;;;;;4989192;28;20325;-61
2023/12/09 04:44:52;;;;;;;296.50;42.13;;;1.40;99.90;;;;;;4988096;28;20101;-61
2023/12/09 04:47:18;;;;;;;307.30;41.22;;;1.40;99.90;;;;;;4988637;28;20109;-61
2023/12/09 04:49:44;;;;;;;305.88;45.53;;;1.40;99.90;;;;;;4989103;28;20360;-61
2023/12/09 04:52:09;;;;;;;315.80;44.95;;;1.40;99.90;;;;;;4987722;28;20056;-61
2023/12/09 04:54:35;;;;;;;300.00;41.80;;;1.40;99.90;;;;;;4988079;28;20469;-62
2023/12/09 04:57:00;;;;;;;274.38;40.72;;;1.40;99.90;;;;;;4988626;28;20694;-62
2023/12/09 04:59:26;;;;;;;259.00;40.97;;;1.40;99.90;;;;;;4988402;28;20038;-62
2023/12/09 05:01:52;;;;;;;282.58;41.35;;;1.40;99.90;;;;;;4987997;28;20027;-61
2023/12/09 05:04:17;;;;;;;241.05;38.22;;;1.40;99.90;;;;;;4987077;28;20061;-61
2023/12/09 05:06:43;;;;;;;277.83;40.25;;;1.40;99.90;;;;;;4987698;28;20029;-62
2023/12/09 05:09:10;;;;;;;266.10;39.85;;;1.40;99.90;;;;;;4988780;28;20149;-62
2023/12/09 05:11:36;;;;;;;267.05;38.08;;;1.40;99.90;;;;;;4988296;28;20680;-61
2023/12/09 05:14:01;;;;;;;263.90;40.30;;;1.50;99.90;;;;;;4988697;28;20070;-61
2023/12/09 05:16:27;;;;;;;233.73;36.95;;;1.50;99.90;;;;;;4987998;28;20045;-61
2023/12/09 05:18:54;;;;;;;226.40;36.30;;;1.50;99.90;;;;;;4986979;28;20028;-61
2023/12/09 05:21:20;;;;;;;253.23;37.05;;;1.50;99.90;;;;;;4985998;28;20007;-62
2023/12/09 05:23:49;;;;;;;245.65;38.13;;;1.50;99.90;;;;;;4987799;28;20018;-62
2023/12/09 05:26:25;;;;;;;229.27;39.47;;;1.50;99.90;;;;;;4986727;28;20039;-61
2023/12/09 05:28:52;;;;;;;218.13;38.03;;;1.50;99.90;;;;;;4987815;28;20024;-62
2023/12/09 05:31:18;;;;;;;255.10;37.80;;;1.50;99.90;;;;;;4987425;28;20566;-62
2023/12/09 05:33:43;;;;;;;265.90;41.50;;;1.50;99.90;;;;;;4988628;28;20015;-62
2023/12/09 05:36:09;;;;;;;241.45;38.13;;;1.50;99.90;;;;;;4987220;28;20041;-62
2023/12/09 05:38:35;;;;;;;227.82;38.38;;;1.50;99.90;;;;;;4988272;28;20037;-60
2023/12/09 05:41:01;;;;;;;234.38;40.15;;;1.50;99.90;;;;;;4987700;28;20483;-61
2023/12/09 05:43:27;;;;;;;221.25;38.28;;;1.50;99.90;;;;;;4987500;28;20708;-61
2023/12/09 05:45:52;;;;;;;203.90;36.03;;;1.50;99.90;;;;;;4987701;28;20018;-62
2023/12/09 05:48:18;;;;;;;221.88;37.95;;;1.50;99.90;;;;;;4988089;28;20109;-61
2023/12/09 05:50:44;;;;;;;220.30;37.28;;;1.50;99.90;;;;;;4986764;28;20062;-63
2023/12/09 05:53:10;;;;;;;192.77;37.13;;;1.50;99.90;;;;;;4987009;28;20042;-61
2023/12/09 05:55:36;;;;;;;233.57;37.67;;;1.50;99.90;;;;;;4987852;28;20050;-61
2023/12/09 05:58:02;;;;;;;206.80;39.30;;;1.50;99.90;;;;;;4988360;28;20048;-61
2023/12/09 06:00:28;;;;;;;206.00;35.90;;;1.50;99.90;;;;;;4988785;28;20034;-61
2023/12/09 06:02:54;;;;;;;194.55;35.67;;;1.50;99.90;;;;;;4986345;28;20018;-61
2023/12/09 06:05:20;;;;;;;184.15;34.85;;;1.50;99.90;;;;;;4987018;28;20022;-62
2023/12/09 06:07:46;;;;;;;200.02;38.67;;;1.50;99.90;;;;;;4987535;28;20054;-61
2023/12/09 06:10:11;;;;;;;184.60;34.47;;;1.50;99.90;;;;;;4987095;28;20062;-62
2023/12/09 06:12:37;;;;;;;150.70;32.70;;;1.50;99.90;;;;;;4987979;28;20745;-61
2023/12/09 06:15:04;;;;;;;185.70;34.92;;;1.50;99.90;;;;;;4987033;28;20031;-62
2023/12/09 06:17:30;;;;;;;164.25;33.95;;;1.50;99.90;;;;;;4987211;28;20034;-61
2023/12/09 06:19:55;;;;;;;182.35;36.28;;;1.50;99.90;;;;;;4987128;28;20041;-61
2023/12/09 06:22:21;;;;;;;157.38;34.22;;;1.50;99.90;;;;;;4986655;28;20030;-62
2023/12/09 06:24:47;;;;;;;219.77;36.53;;;1.50;99.90;;;;;;4987272;28;20390;-61
2023/12/09 06:27:13;;;;;;;156.35;31.42;;;1.60;99.90;;;;;;4985352;28;20515;-61
2023/12/09 06:29:38;;;;;;;159.18;32.72;;;1.60;99.90;;;;;;4986695;28;20042;-61
2023/12/09 06:32:04;;;;;;;152.30;32.95;;;1.60;99.90;;;;;;4986105;28;20026;-61
2023/12/09 06:34:30;;;;;;;147.35;32.53;;;1.60;99.90;;;;;;4985637;28;20500;-61
2023/12/09 06:36:56;;;;;;;149.23;32.60;;;1.60;99.90;;;;;;4986689;28;20089;-61
2023/12/09 06:39:22;;;;;;;145.68;31.92;;;1.60;99.90;;;;;;4985453;28;20026;-61
2023/12/09 06:41:48;;;;;;;140.60;33.33;;;1.60;99.90;;;;;;4986962;28;20517;-60
2023/12/09 06:44:14;;;;;;;136.98;31.27;;;1.60;99.90;;;;;;4985669;28;20719;-61
2023/12/09 06:46:40;;;;;;;137.45;32.53;;;1.60;99.90;;;;;;4986810;28;20034;-61
2023/12/09 06:49:08;;;;;;;136.07;30.48;;;1.60;99.90;;;;;;4987015;28;20193;-61
2023/12/09 06:51:34;;;;;;;136.10;31.83;;;1.60;99.90;;;;;;4987088;28;20118;-61
2023/12/09 06:54:00;;;;;;;142.48;31.23;;;1.60;99.90;;;;;;4986463;28;20122;-61
2023/12/09 06:56:26;;;;;;;142.02;31.58;;;1.60;99.90;;;;;;4986584;28;20395;-60
2023/12/09 06:58:52;;;;;;;135.35;32.13;;;1.60;99.90;;;;;;4988778;28;20031;-60
2023/12/09 07:01:28;;;;;;;131.88;30.75;;;1.60;99.90;;;;;;4985518;28;20117;-61
2023/12/09 07:03:54;;;;;;;140.88;32.08;;;1.60;99.90;;;;;;4986294;28;20073;-61
2023/12/09 07:06:23;;;;;;;128.85;28.75;;;1.60;99.90;;;;;;4986700;28;20123;-61
2023/12/09 07:08:49;;;;;;;125.05;29.90;;;1.60;99.90;;;;;;4985426;28;20086;-60
2023/12/09 07:11:16;;;;;;;125.55;28.63;;;1.60;99.90;;;;;;4986498;28;20103;-61
2023/12/09 07:13:42;;;;;;;132.02;30.25;;;1.60;99.90;;;;;;4986231;28;20406;-61
2023/12/09 07:16:12;;;;;;;130.02;31.88;;;1.60;99.90;;;;;;4988335;28;20025;-61
2023/12/09 07:18:40;;;;;;;142.40;30.80;;;1.60;99.90;;;;;;4990976;28;20023;-62
2023/12/09 07:21:06;;;;;;;126.63;30.13;;;1.70;99.90;;;;;;4990797;28;20093;-61
2023/12/09 07:23:31;;;;;;;90.15;28.38;;;1.70;99.90;;;;;;4990426;28;20042;-61
2023/12/09 07:25:57;;;;;;;107.47;27.15;;;1.70;99.90;;;;;;4990121;28;20038;-61
2023/12/09 07:28:23;;;;;;;111.25;30.35;;;1.70;99.90;;;;;;4990439;28;20034;-62
2023/12/09 07:30:48;;;;;;;102.47;26.30;;;1.70;99.90;;;;;;4991024;28;20096;-60
2023/12/09 07:33:14;;;;;;;97.85;26.45;;;1.70;99.90;;;;;;4990960;28;20030;-61
2023/12/09 07:35:40;;;;;;;97.25;26.10;;;1.70;99.90;;;;;;4989642;28;20037;-61
2023/12/09 07:38:06;;;;;;;104.50;26.02;;;1.70;99.90;;;;;;4989600;28;20045;-61
2023/12/09 07:40:32;;;;;;;87.18;25.63;;;1.70;99.90;;;;;;4990143;28;20046;-62
2023/12/09 07:42:57;;;;;;;89.93;25.50;;;1.70;99.90;;;;;;4989770;28;20034;-60
2023/12/09 07:45:23;;;;;;;89.07;25.77;;;1.80;99.90;;;;;;4990381;28;20023;-61
2023/12/09 07:47:48;;;;;;;97.07;27.20;;;1.80;99.90;;;;;;4989903;28;20379;-59
2023/12/09 07:50:14;;;;;;;99.40;26.85;;;1.80;99.90;;;;;;4990083;28;20041;-61
2023/12/09 07:52:40;;;;;;;107.07;28.42;;;1.80;99.90;;;;;;4989697;28;20671;-60
2023/12/09 07:55:07;;;;;;;108.15;28.50;;;1.80;99.90;;;;;;4987622;28;20038;-61
2023/12/09 07:57:33;;;;;;;107.22;28.98;;;1.80;99.90;;;;;;4988830;28;20034;-61
2023/12/09 07:59:59;;;;;;;96.97;28.40;;;1.80;99.90;;;;;;4988124;28;20034;-60
2023/12/09 08:02:24;;;;;;;113.55;29.73;;;1.80;99.90;;;;;;4988801;28;20042;-61
2023/12/09 08:04:50;;;;;;;105.55;29.00;;;1.80;99.90;;;;;;4988549;28;20027;-61
2023/12/09 08:07:16;;;;;;;106.07;27.05;;;1.80;99.90;;;;;;4988567;28;20026;-61
2023/12/09 08:09:41;;;;;;;107.65;26.33;;;1.90;99.90;;;;;;4988252;28;20022;-61
2023/12/09 08:12:07;;;;;;;93.00;26.95;;;1.90;99.90;;;;;;4989132;28;20076;-62
2023/12/09 08:14:33;;;;;;;110.18;27.00;;;1.90;99.90;;;;;;4988369;28;20045;-61
2023/12/09 08:16:59;;;;;;;96.85;26.65;;;1.90;99.90;;;;;;4985489;28;20390;-60
2023/12/09 08:19:25;;;;;;;97.45;26.27;;;1.90;99.90;;;;;;4986362;28;20036;-61
2023/12/09 08:21:50;;;;;;;92.85;26.52;;;1.90;99.90;;;;;;4987540;28;20026;-61
2023/12/09 08:24:16;;;;;;;97.47;29.10;;;1.90;99.90;;;;;;4986643;28;20618;-61
2023/12/09 08:26:42;;;;;;;104.25;26.77;;;1.90;99.90;;;;;;4985719;28;20048;-60
2023/12/09 08:29:11;;;;;;;97.72;28.20;;;1.90;99.90;;;;;;4987033;28;20536;-61
2023/12/09 08:31:37;;;;;;;93.80;24.75;;;1.90;99.90;;;;;;4987332;28;20038;-61
2023/12/09 08:34:04;;;;;;;88.30;24.88;;;1.90;99.90;;;;;;4987914;28;20497;-61
2023/12/09 08:36:30;;;;;;;98.32;25.80;;;1.90;99.90;;;;;;4986865;28;20022;-60
2023/12/09 08:38:56;;;;;;;89.60;25.05;;;1.90;99.90;;;;;;4989302;28;20064;-61
2023/12/09 08:41:21;;;;;;;91.68;25.92;;;2.00;99.90;;;;;;4988816;28;20054;-61
2023/12/09 08:43:48;;;;;;;83.90;24.50;;;2.00;99.90;;;;;;4989143;28;20501;-61
2023/12/09 08:46:14;;;;;;;86.13;25.60;;;2.00;99.90;;;;;;4984882;28;20073;-61
2023/12/09 08:48:39;;;;;;;84.25;23.92;;;2.00;99.90;;;;;;4987709;28;20109;-61
2023/12/09 08:51:05;;;;;;;83.32;22.60;;;2.00;99.90;;;;;;4986424;28;20095;-61
2023/12/09 08:53:31;;;;;;;89.43;24.63;;;2.00;99.90;;;;;;4983912;28;20046;-61
2023/12/09 08:55:56;;;;;;;88.28;24.23;;;2.00;99.90;;;;;;4987434;28;20042;-60
2023/12/09 08:58:22;;;;;;;89.03;22.42;;;2.00;99.90;;;;;;4985547;28;20034;-61
2023/12/09 09:00:48;;;;;;;90.57;25.30;;;2.00;99.90;;;;;;4984280;28;20030;-62
2023/12/09 09:03:13;;;;;;;77.22;24.00;;;2.00;99.90;;;;;;4985484;28;20046;-60
2023/12/09 09:05:39;;;;;;;79.30;24.40;;;2.10;99.90;;;;;;4984736;28;20491;-61
2023/12/09 09:08:05;;;;;;;83.38;24.55;;;2.10;99.90;;;;;;4986323;28;20034;-61
2023/12/09 09:10:30;;;;;;;67.95;21.98;;;2.10;99.90;;;;;;4987215;28;20105;-60
2023/12/09 09:12:56;;;;;;;81.63;24.20;;;2.10;99.90;;;;;;4987304;28;20054;-62
2023/12/09 09:15:22;;;;;;;82.97;25.55;;;2.20;99.90;;;;;;4987441;28;20547;-62
2023/12/09 09:17:47;;;;;;;75.30;24.98;;;2.20;99.90;;;;;;4987315;28;20427;-61
2023/12/09 09:20:13;;;;;;;69.15;21.95;;;2.30;99.90;;;;;;4987276;28;20092;-61
2023/12/09 09:22:39;;;;;;;80.72;24.83;;;2.40;99.90;;;;;;4987598;28;20038;-61
2023/12/09 09:25:05;;;;;;;65.40;22.60;;;2.40;99.90;;;;;;4976594;28;20089;-61
2023/12/09 09:27:31;;;;;;;78.43;23.15;;;2.40;99.90;;;;;;4963547;28;20027;-62
2023/12/09 09:29:56;;;;;;;67.10;24.13;;;2.40;99.90;;;;;;4973160;28;20046;-61
2023/12/09 09:32:22;;;;;;;69.82;22.30;;;2.40;99.90;;;;;;4978339;28;103663;-62
2023/12/09 09:34:48;;;;;;;70.80;21.55;;;2.40;99.90;;;;;;4983128;28;20038;-61
2023/12/09 09:37:14;;;;;;;68.70;23.88;;;2.50;99.90;;;;;;4982376;28;20041;-61
2023/12/09 09:39:40;;;;;;;69.40;21.48;;;2.50;99.90;;;;;;4985732;28;20026;-61
2023/12/09 09:42:27;;;;;;;53.85;21.40;;;2.60;99.90;;;;;;4987868;28;20035;-61
2023/12/09 09:45:11;;;;;;;56.70;23.52;;;2.60;99.90;;;;;;4987353;28;20037;-61
2023/12/09 09:47:37;;;;;;;59.92;21.90;;;2.60;99.90;;;;;;4987874;28;20026;-61
2023/12/09 09:50:16;;;;;;;62.53;22.80;;;2.60;99.90;;;;;;4988024;28;20022;-61
2023/12/09 09:52:42;;;;;;;66.32;22.17;;;2.60;99.90;;;;;;4987397;28;20045;-60
2023/12/09 09:55:08;;;;;;;58.90;23.30;;;2.50;99.90;;;;;;4987551;28;20034;-61
2023/12/09 09:57:34;;;;;;;61.83;23.17;;;2.60;99.90;;;;;;4986427;28;20026;-61
2023/12/09 10:00:00;;;;;;;61.10;22.92;;;2.50;99.90;;;;;;4987947;28;20038;-61
2023/12/09 10:02:27;;;;;;;65.30;24.05;;;2.50;99.90;;;;;;4987850;28;20034;-60
2023/12/09 10:04:53;;;;;;;57.30;21.90;;;2.50;99.90;;;;;;4987663;28;20070;-61
2023/12/09 10:07:20;;;;;;;59.45;22.48;;;2.50;99.90;;;;;;4987576;28;20031;-60
2023/12/09 10:09:46;;;;;;;57.75;21.67;;;2.50;99.90;;;;;;4988189;28;20045;-61
2023/12/09 10:12:12;;;;;;;58.65;21.30;;;2.60;99.90;;;;;;4987925;28;20728;-61
2023/12/09 10:14:38;;;;;;;57.50;21.30;;;2.60;99.90;;;;;;4987196;28;20030;-61
2023/12/09 10:17:05;;;;;;;59.00;21.98;;;2.70;99.90;;;;;;4987703;28;20033;-61
2023/12/09 10:19:33;;;;;;;63.55;22.05;;;2.70;99.90;;;;;;4986935;28;20061;-60
2023/12/09 10:21:58;;;;;;;60.35;20.65;;;2.70;99.90;;;;;;4988513;28;20029;-61
2023/12/09 10:24:25;;;;;;;54.67;22.13;;;2.70;99.90;;;;;;4987724;28;20912;-60
2023/12/09 10:26:51;;;;;;;61.38;22.17;;;2.80;99.90;;;;;;4988475;28;20030;-61
2023/12/09 10:29:16;;;;;;;66.35;26.42;;;2.70;99.90;;;;;;4987796;28;20027;-61
2023/12/09 10:31:42;;;;;;;57.33;23.05;;;2.70;99.90;;;;;;4987531;28;20455;-61
2023/12/09 10:34:12;;;;;;;57.10;20.83;;;2.70;99.90;;;;;;4987517;28;20021;-61
2023/12/09 10:36:37;;;;;;;54.55;20.48;;;2.70;99.90;;;;;;4988762;28;20336;-62
2023/12/09 10:39:05;;;;;;;54.45;22.02;;;2.70;99.90;;;;;;4987994;28;20385;-61
2023/12/09 10:41:30;;;;;;;61.75;22.30;;;2.80;99.90;;;;;;4988543;28;20027;-61
2023/12/09 10:43:56;;;;;;;55.05;21.38;;;2.80;99.90;;;;;;4987713;28;20034;-61
2023/12/09 10:46:22;;;;;;;58.50;22.45;;;2.80;99.90;;;;;;4987298;28;20517;-61
2023/12/09 10:48:48;;;;;;;59.45;21.73;;;2.90;99.90;;;;;;4988077;28;20026;-62
2023/12/09 10:51:13;;;;;;;60.47;21.45;;;2.90;99.90;;;;;;4988433;28;20422;-62
2023/12/09 10:53:40;;;;;;;66.57;22.55;;;3.00;99.90;;;;;;4991939;28;20483;-61
2023/12/09 10:56:07;;;;;;;60.08;22.27;;;3.00;99.90;;;;;;4989521;28;20566;-61
2023/12/09 10:58:34;;;;;;;62.22;23.35;;;2.90;99.90;;;;;;4991690;28;20927;-61
2023/12/09 11:01:01;;;;;;;58.88;22.90;;;3.00;99.90;;;;;;4990805;28;20033;-60
2023/12/09 11:03:28;;;;;;;60.20;21.77;;;3.00;99.90;;;;;;4990497;28;20026;-61
2023/12/09 11:05:57;;;;;;;60.22;22.35;;;3.00;99.90;;;;;;4989801;28;20080;-62
2023/12/09 11:08:27;;;;;;;58.58;23.83;;;3.00;99.90;;;;;;4989949;28;20031;-61
2023/12/09 11:10:55;;;;;;;48.10;20.05;;;3.00;99.90;;;;;;4992177;28;20047;-61
2023/12/09 11:13:24;;;;;;;50.60;21.85;;;3.10;99.90;;;;;;4991022;28;20545;-60
2023/12/09 11:16:08;;;;;;;48.00;19.90;;;3.10;99.90;;;;;;4991285;28;20124;-61
2023/12/09 11:18:33;;;;;;;46.03;21.77;;;3.20;99.90;;;;;;4991248;28;20510;-61
2023/12/09 11:21:01;;;;;;;46.70;19.75;;;3.20;99.90;;;;;;4991088;28;20034;-61
2023/12/09 11:23:27;;;;;;;48.70;19.27;;;3.20;99.90;;;;;;4990731;28;20042;-60
2023/12/09 11:25:53;;;;;;;37.58;18.92;;;3.30;99.90;;;;;;4989359;28;20037;-61
2023/12/09 11:28:20;;;;;;;37.40;18.52;;;3.40;99.90;;;;;;4991049;28;20042;-61
2023/12/09 11:30:46;;;;;;;44.28;19.92;;;3.50;99.90;;;;;;4991216;28;20185;-61
2023/12/09 11:33:12;;;;;;;40.67;19.70;;;3.50;99.90;;;;;;4991083;28;20125;-61
2023/12/09 11:35:38;;;;;;;34.65;17.75;;;3.50;99.90;;;;;;4990426;28;20507;-61
2023/12/09 11:38:06;;;;;;;36.75;18.88;;;3.40;99.90;;;;;;4990331;28;20081;-61
2023/12/09 11:40:32;;;;;;;41.97;19.33;;;3.40;99.90;;;;;;4990675;28;20050;-61
2023/12/09 11:42:59;;;;;;;45.10;19.33;;;3.40;99.90;;;;;;4989738;28;20026;-61
2023/12/09 11:45:28;;;;;;;44.22;21.45;;;3.30;99.90;;;;;;4990389;28;20378;-61
2023/12/09 11:47:54;;;;;;;42.65;20.40;;;3.40;99.90;;;;;;4990368;28;20113;-61
2023/12/09 11:50:20;;;;;;;42.10;19.45;;;3.40;99.90;;;;;;4973328;28;20185;-61
2023/12/09 11:52:49;;;;;;;42.00;20.23;;;3.40;99.90;;;;;;4990915;28;20060;-61
2023/12/09 11:55:17;;;;;;;37.53;18.63;;;3.40;99.90;;;;;;4989994;28;20113;-60
2023/12/09 11:57:43;;;;;;;39.38;19.35;;;3.50;99.90;;;;;;4991093;28;20141;-61
2023/12/09 12:00:13;;;;;;;37.13;18.90;;;3.60;99.90;;;;;;4990762;28;20046;-61
2023/12/09 12:02:39;;;;;;;43.88;19.25;;;3.70;99.90;;;;;;4990080;28;20514;-61
2023/12/09 12:05:07;;;;;;;36.97;18.05;;;3.80;99.90;;;;;;4989863;28;20034;-61
2023/12/09 12:07:34;;;;;;;34.17;17.38;;;3.90;99.90;;;;;;4990013;28;20023;-62
2023/12/09 12:09:59;;;;;;;33.03;18.40;;;4.10;99.90;;;;;;4990715;28;20113;-61
2023/12/09 12:12:25;;;;;;;32.03;17.13;;;4.00;99.90;;;;;;4989323;28;20113;-61
2023/12/09 12:14:51;;;;;;;37.97;17.65;;;4.00;99.90;;;;;;4992353;28;20034;-61
2023/12/09 12:17:17;;;;;;;31.00;17.92;;;3.90;99.90;;;;;;4990062;28;20037;-61
2023/12/09 12:19:47;;;;;;;32.63;15.35;;;3.90;99.90;;;;;;4989705;28;20073;-62
2023/12/09 12:22:13;;;;;;;29.27;16.42;;;3.90;99.90;;;;;;4987533;28;20044;-61
2023/12/09 12:24:43;;;;;;;27.20;16.48;;;3.90;99.90;;;;;;4989569;28;20038;-60
2023/12/09 12:27:08;;;;;;;33.35;16.98;;;3.90;99.90;;;;;;4988903;28;20030;-62